sensor_id;sensor_type;location;lat;lon;timestamp;pressure;altitude;pressure_sealevel;temperature;humidity
80678;BME280;70042;52.494;5.502;2023-05-19T00:00:55;103007.78;;;18.55;60.84
80678;BME280;70042;52.494;5.502;2023-05-19T00:03:21;103008.66;;;18.54;60.73
80678;BME280;70042;52.494;5.502;2023-05-19T00:05:47;103003.38;;;18.52;60.98
80678;BME280;70042;52.494;5.502;2023-05-19T00:08:12;103005.13;;;18.52;60.98
80678;BME280;70042;52.494;5.502;2023-05-19T00:10:39;103001.59;;;18.51;60.93
80678;BME280;70042;52.494;5.502;2023-05-19T00:13:05;102999.81;;;18.50;60.54
80678;BME280;70042;52.494;5.502;2023-05-19T00:15:31;103003.38;;;18.49;60.40
80678;BME280;70042;52.494;5.502;2023-05-19T00:17:56;102989.19;;;18.47;60.91
80678;BME280;70042;52.494;5.502;2023-05-19T00:20:22;102992.72;;;18.46;60.71
80678;BME280;70042;52.494;5.502;2023-05-19T00:22:48;102990.06;;;18.45;60.71
80678;BME280;70042;52.494;5.502;2023-05-19T00:25:15;102989.16;;;18.44;60.91
80678;BME280;70042;52.494;5.502;2023-05-19T00:27:40;102987.41;;;18.43;60.72
80678;BME280;70042;52.494;5.502;2023-05-19T00:30:06;102982.97;;;18.44;60.67
80678;BME280;70042;52.494;5.502;2023-05-19T00:32:32;102986.50;;;18.44;60.56
80678;BME280;70042;52.494;5.502;2023-05-19T00:34:58;102986.53;;;18.43;61.06
80678;BME280;70042;52.494;5.502;2023-05-19T00:37:23;102983.88;;;18.43;60.94
80678;BME280;70042;52.494;5.502;2023-05-19T00:39:49;102984.75;;;18.43;60.85
80678;BME280;70042;52.494;5.502;2023-05-19T00:42:15;102979.44;;;18.42;61.19
80678;BME280;70042;52.494;5.502;2023-05-19T00:44:40;102986.50;;;18.41;61.00
80678;BME280;70042;52.494;5.502;2023-05-19T00:47:07;102975.03;;;18.39;61.09
80678;BME280;70042;52.494;5.502;2023-05-19T00:49:32;102980.31;;;18.39;60.91
80678;BME280;70042;52.494;5.502;2023-05-19T00:52:00;102980.28;;;18.38;60.84
80678;BME280;70042;52.494;5.502;2023-05-19T00:54:26;102976.78;;;18.37;60.78
80678;BME280;70042;52.494;5.502;2023-05-19T00:56:53;102979.41;;;18.36;60.89
80678;BME280;70042;52.494;5.502;2023-05-19T00:59:19;102983.81;;;18.35;60.83
80678;BME280;70042;52.494;5.502;2023-05-19T01:01:45;102982.03;;;18.34;61.39
80678;BME280;70042;52.494;5.502;2023-05-19T01:04:17;102978.53;;;18.35;61.13
80678;BME280;70042;52.494;5.502;2023-05-19T01:06:48;102982.94;;;18.35;61.33
80678;BME280;70042;52.494;5.502;2023-05-19T01:09:20;102979.38;;;18.34;60.85
80678;BME280;70042;52.494;5.502;2023-05-19T01:11:45;102980.28;;;18.35;61.29
80678;BME280;70042;52.494;5.502;2023-05-19T01:14:10;102982.94;;;18.35;61.12
80678;BME280;70042;52.494;5.502;2023-05-19T01:16:40;102971.44;;;18.34;61.29
80678;BME280;70042;52.494;5.502;2023-05-19T01:22:17;102971.47;;;18.33;61.36
80678;BME280;70042;52.494;5.502;2023-05-19T01:30:53;102962.63;;;18.28;61.41
80678;BME280;70042;52.494;5.502;2023-05-19T01:33:20;102959.09;;;18.27;61.40
80678;BME280;70042;52.494;5.502;2023-05-19T01:35:47;102956.44;;;18.27;61.42
80678;BME280;70042;52.494;5.502;2023-05-19T01:38:15;102948.50;;;18.27;61.26
80678;BME280;70042;52.494;5.502;2023-05-19T01:40:42;102952.00;;;18.26;61.36
80678;BME280;70042;52.494;5.502;2023-05-19T01:43:10;102947.59;;;18.27;61.59
80678;BME280;70042;52.494;5.502;2023-05-19T01:45:37;102958.19;;;18.27;61.50
80678;BME280;70042;52.494;5.502;2023-05-19T01:48:03;102949.38;;;18.26;61.39
80678;BME280;70042;52.494;5.502;2023-05-19T01:50:30;102952.00;;;18.26;61.26
80678;BME280;70042;52.494;5.502;2023-05-19T01:52:56;102951.13;;;18.26;61.30
80678;BME280;70042;52.494;5.502;2023-05-19T01:55:22;102951.13;;;18.26;61.51
80678;BME280;70042;52.494;5.502;2023-05-19T02:11:55;102939.59;;;18.19;61.53
80678;BME280;70042;52.494;5.502;2023-05-19T02:14:34;102932.56;;;18.18;61.79
80678;BME280;70042;52.494;5.502;2023-05-19T02:17:03;102938.72;;;18.19;61.82
80678;BME280;70042;52.494;5.502;2023-05-19T02:19:35;102939.59;;;18.19;61.46
80678;BME280;70042;52.494;5.502;2023-05-19T02:22:01;102943.16;;;18.18;61.75
80678;BME280;70042;52.494;5.502;2023-05-19T02:24:26;102935.19;;;18.17;61.50
80678;BME280;70042;52.494;5.502;2023-05-19T02:26:52;102939.63;;;18.18;61.70
80678;BME280;70042;52.494;5.502;2023-05-19T02:29:19;102941.38;;;18.17;61.34
80678;BME280;70042;52.494;5.502;2023-05-19T02:31:44;102938.69;;;18.16;61.36
80678;BME280;70042;52.494;5.502;2023-05-19T02:34:10;102937.84;;;18.15;61.29
80678;BME280;70042;52.494;5.502;2023-05-19T02:36:37;102928.13;;;18.14;61.76
80678;BME280;70042;52.494;5.502;2023-05-19T02:39:03;102935.19;;;18.13;61.60
80678;BME280;70042;52.494;5.502;2023-05-19T02:41:29;102928.09;;;18.12;61.52
80678;BME280;70042;52.494;5.502;2023-05-19T02:43:54;102929.88;;;18.12;61.82
80678;BME280;70042;52.494;5.502;2023-05-19T02:46:20;102927.25;;;18.12;61.58
80678;BME280;70042;52.494;5.502;2023-05-19T02:48:45;102915.78;;;18.11;61.51
80678;BME280;70042;52.494;5.502;2023-05-19T02:51:11;102914.88;;;18.11;61.58
80678;BME280;70042;52.494;5.502;2023-05-19T02:53:36;102919.28;;;18.10;61.69
80678;BME280;70042;52.494;5.502;2023-05-19T02:56:02;102925.47;;;18.11;61.67
80678;BME280;70042;52.494;5.502;2023-05-19T02:58:27;102923.69;;;18.10;61.75
80678;BME280;70042;52.494;5.502;2023-05-19T03:00:53;102913.09;;;18.10;61.71
80678;BME280;70042;52.494;5.502;2023-05-19T03:03:20;102916.66;;;18.09;61.37
80678;BME280;70042;52.494;5.502;2023-05-19T03:05:45;102918.41;;;18.08;61.47
80678;BME280;70042;52.494;5.502;2023-05-19T03:08:11;102918.38;;;18.07;61.42
80678;BME280;70042;52.494;5.502;2023-05-19T03:10:36;102908.66;;;18.06;61.51
80678;BME280;70042;52.494;5.502;2023-05-19T03:13:02;102906.91;;;18.05;61.81
80678;BME280;70042;52.494;5.502;2023-05-19T03:15:27;102914.84;;;18.05;61.92
80678;BME280;70042;52.494;5.502;2023-05-19T03:17:52;102911.28;;;18.03;61.85
80678;BME280;70042;52.494;5.502;2023-05-19T03:20:18;102907.78;;;18.02;61.83
80678;BME280;70042;52.494;5.502;2023-05-19T03:22:43;102908.66;;;18.04;62.17
80678;BME280;70042;52.494;5.502;2023-05-19T03:25:09;102900.69;;;18.03;61.67
80678;BME280;70042;52.494;5.502;2023-05-19T03:27:34;102900.69;;;18.03;61.97
80678;BME280;70042;52.494;5.502;2023-05-19T03:30:00;102905.13;;;18.02;61.77
80678;BME280;70042;52.494;5.502;2023-05-19T03:32:25;102898.06;;;18.03;61.90
80678;BME280;70042;52.494;5.502;2023-05-19T03:34:50;102903.34;;;18.03;61.85
80678;BME280;70042;52.494;5.502;2023-05-19T03:37:16;102910.44;;;18.02;61.77
80678;BME280;70042;52.494;5.502;2023-05-19T03:39:41;102906.00;;;18.01;61.89
80678;BME280;70042;52.494;5.502;2023-05-19T03:42:07;102905.97;;;18.00;61.88
80678;BME280;70042;52.494;5.502;2023-05-19T03:44:32;102903.34;;;17.98;61.71
80678;BME280;70042;52.494;5.502;2023-05-19T03:46:57;102908.63;;;17.98;62.06
80678;BME280;70042;52.494;5.502;2023-05-19T03:49:23;102904.19;;;17.97;61.81
80678;BME280;70042;52.494;5.502;2023-05-19T03:51:48;102910.38;;;17.98;62.02
80678;BME280;70042;52.494;5.502;2023-05-19T03:54:14;102905.09;;;17.98;62.25
80678;BME280;70042;52.494;5.502;2023-05-19T03:56:41;102907.75;;;17.98;61.92
80678;BME280;70042;52.494;5.502;2023-05-19T03:59:06;102898.91;;;17.97;61.94
80678;BME280;70042;52.494;5.502;2023-05-19T04:01:32;102905.09;;;17.98;61.89
80678;BME280;70042;52.494;5.502;2023-05-19T04:03:58;102910.38;;;17.98;62.17
80678;BME280;70042;52.494;5.502;2023-05-19T04:06:23;102908.59;;;17.97;61.97
80678;BME280;70042;52.494;5.502;2023-05-19T04:08:49;102910.38;;;17.98;61.99
80678;BME280;70042;52.494;5.502;2023-05-19T04:11:14;102897.16;;;17.98;61.83
80678;BME280;70042;52.494;5.502;2023-05-19T04:13:40;102896.28;;;17.96;61.60
80678;BME280;70042;52.494;5.502;2023-05-19T04:16:05;102898.03;;;17.95;61.71
80678;BME280;70042;52.494;5.502;2023-05-19T04:18:31;102901.53;;;17.94;61.78
80678;BME280;70042;52.494;5.502;2023-05-19T04:20:56;102902.41;;;17.93;61.98
80678;BME280;70042;52.494;5.502;2023-05-19T04:23:22;102906.84;;;17.93;61.71
80678;BME280;70042;52.494;5.502;2023-05-19T04:25:48;102906.84;;;17.93;62.24
80678;BME280;70042;52.494;5.502;2023-05-19T04:28:13;102910.34;;;17.93;61.75
80678;BME280;70042;52.494;5.502;2023-05-19T04:30:39;102905.06;;;17.93;61.85
80678;BME280;70042;52.494;5.502;2023-05-19T04:33:06;102907.72;;;17.95;61.99
80678;BME280;70042;52.494;5.502;2023-05-19T04:35:33;102908.63;;;17.95;62.08
80678;BME280;70042;52.494;5.502;2023-05-19T04:37:59;102906.84;;;17.94;61.98
80678;BME280;70042;52.494;5.502;2023-05-19T04:40:26;102902.44;;;17.95;61.89
80678;BME280;70042;52.494;5.502;2023-05-19T04:42:51;102909.47;;;17.94;61.96
80678;BME280;70042;52.494;5.502;2023-05-19T04:45:18;102905.06;;;17.93;61.90
80678;BME280;70042;52.494;5.502;2023-05-19T04:47:43;102911.22;;;17.94;61.80
80678;BME280;70042;52.494;5.502;2023-05-19T04:50:11;102914.78;;;17.93;61.96
80678;BME280;70042;52.494;5.502;2023-05-19T04:52:36;102909.47;;;17.93;62.07
80678;BME280;70042;52.494;5.502;2023-05-19T04:55:02;102914.78;;;17.93;62.06
80678;BME280;70042;52.494;5.502;2023-05-19T04:57:28;102905.06;;;17.93;61.86
80678;BME280;70042;52.494;5.502;2023-05-19T04:59:53;102903.31;;;17.92;61.78
80678;BME280;70042;52.494;5.502;2023-05-19T05:02:26;102912.13;;;17.93;61.89
80678;BME280;70042;52.494;5.502;2023-05-19T05:04:52;102911.22;;;17.94;61.85
80678;BME280;70042;52.494;5.502;2023-05-19T05:07:21;102923.63;;;17.96;62.03
80678;BME280;70042;52.494;5.502;2023-05-19T05:09:47;102921.84;;;17.95;61.62
80678;BME280;70042;52.494;5.502;2023-05-19T05:12:13;102925.38;;;17.96;61.76
80678;BME280;70042;52.494;5.502;2023-05-19T05:14:40;102921.81;;;17.97;61.57
80678;BME280;70042;52.494;5.502;2023-05-19T05:17:06;102917.44;;;17.97;61.80
80678;BME280;70042;52.494;5.502;2023-05-19T05:19:32;102923.63;;;17.98;61.69
80678;BME280;70042;52.494;5.502;2023-05-19T05:21:58;102923.63;;;17.98;61.61
80678;BME280;70042;52.494;5.502;2023-05-19T05:24:24;102917.44;;;17.96;61.99
80678;BME280;70042;52.494;5.502;2023-05-19T05:26:49;102920.09;;;17.96;61.93
80678;BME280;70042;52.494;5.502;2023-05-19T05:29:15;102919.19;;;17.95;61.97
80678;BME280;70042;52.494;5.502;2023-05-19T05:31:40;102914.78;;;17.96;61.75
80678;BME280;70042;52.494;5.502;2023-05-19T05:34:06;102918.31;;;17.96;61.93
80678;BME280;70042;52.494;5.502;2023-05-19T05:36:31;102925.38;;;17.97;61.67
80678;BME280;70042;52.494;5.502;2023-05-19T05:38:59;102926.25;;;17.98;61.52
80678;BME280;70042;52.494;5.502;2023-05-19T05:41:26;102927.13;;;18.00;61.83
80678;BME280;70042;52.494;5.502;2023-05-19T05:43:53;102929.81;;;18.01;61.74
80678;BME280;70042;52.494;5.502;2023-05-19T05:46:19;102924.53;;;18.01;61.64
80678;BME280;70042;52.494;5.502;2023-05-19T05:48:44;102932.47;;;18.01;61.46
80678;BME280;70042;52.494;5.502;2023-05-19T05:51:10;102925.41;;;18.02;61.36
80678;BME280;70042;52.494;5.502;2023-05-19T05:53:40;102928.06;;;18.02;61.82
80678;BME280;70042;52.494;5.502;2023-05-19T05:56:08;102930.69;;;18.02;61.75
80678;BME280;70042;52.494;5.502;2023-05-19T05:58:34;102931.59;;;18.02;61.78
80678;BME280;70042;52.494;5.502;2023-05-19T06:01:02;102931.59;;;18.02;61.75
80678;BME280;70042;52.494;5.502;2023-05-19T06:03:29;102930.69;;;18.03;61.69
80678;BME280;70042;52.494;5.502;2023-05-19T06:05:56;102923.66;;;18.04;61.75
80678;BME280;70042;52.494;5.502;2023-05-19T06:08:21;102927.19;;;18.04;61.82
80678;BME280;70042;52.494;5.502;2023-05-19T06:10:47;102928.97;;;18.07;61.65
80678;BME280;70042;52.494;5.502;2023-05-19T06:13:12;102925.44;;;18.08;61.62
80678;BME280;70042;52.494;5.502;2023-05-19T06:15:38;102935.16;;;18.09;61.57
80678;BME280;70042;52.494;5.502;2023-05-19T06:18:03;102938.66;;;18.09;61.74
80678;BME280;70042;52.494;5.502;2023-05-19T06:20:29;102940.47;;;18.09;61.48
80678;BME280;70042;52.494;5.502;2023-05-19T06:22:54;102938.66;;;18.09;61.79
80678;BME280;70042;52.494;5.502;2023-05-19T06:25:19;102934.25;;;18.10;61.73
80678;BME280;70042;52.494;5.502;2023-05-19T06:27:45;102934.25;;;18.10;61.65
80678;BME280;70042;52.494;5.502;2023-05-19T06:30:11;102930.72;;;18.09;61.62
80678;BME280;70042;52.494;5.502;2023-05-19T06:32:36;102930.75;;;18.08;61.61
80678;BME280;70042;52.494;5.502;2023-05-19T06:35:02;102930.75;;;18.08;61.64
80678;BME280;70042;52.494;5.502;2023-05-19T06:37:28;102935.16;;;18.09;61.61
80678;BME280;70042;52.494;5.502;2023-05-19T06:39:53;102936.03;;;18.11;61.70
80678;BME280;70042;52.494;5.502;2023-05-19T06:42:19;102930.75;;;18.11;61.71
80678;BME280;70042;52.494;5.502;2023-05-19T06:44:50;102931.63;;;18.13;61.85
80678;BME280;70042;52.494;5.502;2023-05-19T06:47:16;102925.47;;;18.14;61.84
80678;BME280;70042;52.494;5.502;2023-05-19T06:49:42;102929.91;;;18.15;61.67
80678;BME280;70042;52.494;5.502;2023-05-19T06:52:07;102924.63;;;18.15;61.48
80678;BME280;70042;52.494;5.502;2023-05-19T06:54:33;102933.44;;;18.19;61.57
80678;BME280;70042;52.494;5.502;2023-05-19T06:56:58;102933.44;;;18.19;61.48
80678;BME280;70042;52.494;5.502;2023-05-19T06:59:23;102939.59;;;18.19;61.28
80678;BME280;70042;52.494;5.502;2023-05-19T07:01:49;102933.44;;;18.19;61.37
80678;BME280;70042;52.494;5.502;2023-05-19T07:04:14;102934.31;;;18.19;61.64
80678;BME280;70042;52.494;5.502;2023-05-19T07:06:40;102932.56;;;18.20;61.75
80678;BME280;70042;52.494;5.502;2023-05-19T07:09:05;102929.91;;;18.20;62.01
80678;BME280;70042;52.494;5.502;2023-05-19T07:11:30;102932.59;;;18.21;61.74
80678;BME280;70042;52.494;5.502;2023-05-19T07:13:56;102937.00;;;18.25;61.75
80678;BME280;70042;52.494;5.502;2023-05-19T07:16:21;102932.63;;;18.27;62.01
80678;BME280;70042;52.494;5.502;2023-05-19T07:18:47;102933.50;;;18.29;61.72
80678;BME280;70042;52.494;5.502;2023-05-19T07:21:12;102928.22;;;18.29;61.41
80678;BME280;70042;52.494;5.502;2023-05-19T07:23:37;102929.09;;;18.31;61.01
80678;BME280;70042;52.494;5.502;2023-05-19T07:26:03;102931.75;;;18.33;61.26
80678;BME280;70042;52.494;5.502;2023-05-19T07:28:28;102927.34;;;18.33;61.49
80678;BME280;70042;52.494;5.502;2023-05-19T07:30:54;102929.09;;;18.34;61.10
80678;BME280;70042;52.494;5.502;2023-05-19T07:33:19;102931.75;;;18.34;61.41
80678;BME280;70042;52.494;5.502;2023-05-19T07:35:45;102929.09;;;18.34;61.08
80678;BME280;70042;52.494;5.502;2023-05-19T07:38:10;102928.22;;;18.32;61.00
80678;BME280;70042;52.494;5.502;2023-05-19T07:40:36;102935.28;;;18.32;61.43
80678;BME280;70042;52.494;5.502;2023-05-19T07:43:02;102935.28;;;18.32;60.69
80678;BME280;70042;52.494;5.502;2023-05-19T07:45:27;102928.22;;;18.32;60.89
80678;BME280;70042;52.494;5.502;2023-05-19T07:47:53;102927.34;;;18.33;60.77
80678;BME280;70042;52.494;5.502;2023-05-19T07:50:18;102930.03;;;18.36;60.66
80678;BME280;70042;52.494;5.502;2023-05-19T07:52:44;102930.91;;;18.38;60.13
80678;BME280;70042;52.494;5.502;2023-05-19T07:55:09;102930.91;;;18.41;59.93
80678;BME280;70042;52.494;5.502;2023-05-19T07:57:36;102921.22;;;18.42;60.21
80678;BME280;70042;52.494;5.502;2023-05-19T08:00:02;102928.28;;;18.43;59.67
80678;BME280;70042;52.494;5.502;2023-05-19T08:02:32;102929.19;;;18.43;59.24
80678;BME280;70042;52.494;5.502;2023-05-19T08:04:57;102922.13;;;18.45;59.20
80678;BME280;70042;52.494;5.502;2023-05-19T08:07:23;102927.41;;;18.45;59.61
80678;BME280;70042;52.494;5.502;2023-05-19T08:09:48;102926.53;;;18.45;59.63
80678;BME280;70042;52.494;5.502;2023-05-19T08:12:14;102920.38;;;18.46;59.25
80678;BME280;70042;52.494;5.502;2023-05-19T08:14:39;102923.94;;;18.49;59.58
80678;BME280;70042;52.494;5.502;2023-05-19T08:17:05;102917.78;;;18.52;59.74
80678;BME280;70042;52.494;5.502;2023-05-19T08:19:30;102902.78;;;18.55;59.69
80678;BME280;70042;52.494;5.502;2023-05-19T08:21:56;102907.22;;;18.58;59.82
80678;BME280;70042;52.494;5.502;2023-05-19T08:24:22;102903.69;;;18.60;59.54
80678;BME280;70042;52.494;5.502;2023-05-19T08:26:47;102904.59;;;18.62;59.83
80678;BME280;70042;52.494;5.502;2023-05-19T08:29:12;102912.53;;;18.66;59.58
80678;BME280;70042;52.494;5.502;2023-05-19T08:31:38;102899.31;;;18.66;59.80
80678;BME280;70042;52.494;5.502;2023-05-19T08:34:03;102901.94;;;18.66;59.91
80678;BME280;70042;52.494;5.502;2023-05-19T08:36:29;102901.94;;;18.67;59.85
80678;BME280;70042;52.494;5.502;2023-05-19T08:38:54;102897.53;;;18.68;59.61
80678;BME280;70042;52.494;5.502;2023-05-19T08:41:20;102907.25;;;18.69;60.13
80678;BME280;70042;52.494;5.502;2023-05-19T08:43:47;102891.34;;;18.70;60.04
80678;BME280;70042;52.494;5.502;2023-05-19T08:46:15;102887.84;;;18.71;59.75
80678;BME280;70042;52.494;5.502;2023-05-19T08:48:41;102886.97;;;18.74;60.02
80678;BME280;70042;52.494;5.502;2023-05-19T08:51:17;102889.63;;;18.75;59.43
80678;BME280;70042;52.494;5.502;2023-05-19T08:53:48;102889.63;;;18.77;59.93
80678;BME280;70042;52.494;5.502;2023-05-19T08:56:21;102875.50;;;18.78;59.66
80678;BME280;70042;52.494;5.502;2023-05-19T08:58:49;102871.97;;;18.80;59.88
80678;BME280;70042;52.494;5.502;2023-05-19T09:01:15;102874.63;;;18.83;59.80
80678;BME280;70042;52.494;5.502;2023-05-19T09:03:42;102870.22;;;18.85;59.85
80678;BME280;70042;52.494;5.502;2023-05-19T09:06:08;102869.34;;;18.88;60.03
80678;BME280;70042;52.494;5.502;2023-05-19T09:08:37;102865.81;;;18.89;60.38
80678;BME280;70042;52.494;5.502;2023-05-19T09:11:02;102864.06;;;18.91;60.02
80678;BME280;70042;52.494;5.502;2023-05-19T09:13:27;102870.22;;;18.91;60.45
80678;BME280;70042;52.494;5.502;2023-05-19T09:15:55;102864.06;;;18.94;60.33
80678;BME280;70042;52.494;5.502;2023-05-19T09:18:20;102865.81;;;18.95;60.09
80678;BME280;70042;52.494;5.502;2023-05-19T09:20:46;102866.72;;;18.98;60.13
80678;BME280;70042;52.494;5.502;2023-05-19T09:23:16;102856.13;;;19.00;60.10
80678;BME280;70042;52.494;5.502;2023-05-19T09:25:51;102857.88;;;19.01;60.09
80678;BME280;70042;52.494;5.502;2023-05-19T09:28:31;102851.69;;;19.02;60.46
80678;BME280;70042;52.494;5.502;2023-05-19T09:31:09;102857.03;;;19.03;60.31
80678;BME280;70042;52.494;5.502;2023-05-19T09:33:39;102849.06;;;19.05;60.06
80678;BME280;70042;52.494;5.502;2023-05-19T09:36:06;102849.94;;;19.08;60.57
80678;BME280;70042;52.494;5.502;2023-05-19T09:38:38;102853.50;;;19.12;60.38
80678;BME280;70042;52.494;5.502;2023-05-19T09:41:05;102860.56;;;19.19;60.39
80678;BME280;70042;52.494;5.502;2023-05-19T09:43:32;102859.66;;;19.26;60.01
80678;BME280;70042;52.494;5.502;2023-05-19T09:46:05;102849.97;;;19.28;60.53
80678;BME280;70042;52.494;5.502;2023-05-19T09:48:32;102849.97;;;19.34;59.86
80678;BME280;70042;52.494;5.502;2023-05-19T09:50:59;102855.25;;;19.39;59.72
80678;BME280;70042;52.494;5.502;2023-05-19T09:53:25;102850.00;;;19.40;59.86
80678;BME280;70042;52.494;5.502;2023-05-19T09:55:54;102853.50;;;19.42;59.51
80678;BME280;70042;52.494;5.502;2023-05-19T09:58:22;102849.09;;;19.46;59.68
80678;BME280;70042;52.494;5.502;2023-05-19T10:00:49;102853.50;;;19.48;59.22
80678;BME280;70042;52.494;5.502;2023-05-19T10:03:15;102852.63;;;19.49;59.43
80678;BME280;70042;52.494;5.502;2023-05-19T10:05:42;102848.22;;;19.53;59.04
80678;BME280;70042;52.494;5.502;2023-05-19T10:08:08;102850.84;;;19.54;59.29
80678;BME280;70042;52.494;5.502;2023-05-19T10:10:35;102848.19;;;19.57;59.13
80678;BME280;70042;52.494;5.502;2023-05-19T10:13:01;102844.66;;;19.58;59.47
80678;BME280;70042;52.494;5.502;2023-05-19T10:15:28;102847.34;;;19.60;59.43
80678;BME280;70042;52.494;5.502;2023-05-19T10:17:55;102842.03;;;19.60;59.03
80678;BME280;70042;52.494;5.502;2023-05-19T10:20:20;102843.78;;;19.61;58.94
80678;BME280;70042;52.494;5.502;2023-05-19T10:22:46;102837.59;;;19.60;59.28
80678;BME280;70042;52.494;5.502;2023-05-19T10:25:13;102834.06;;;19.61;58.92
80678;BME280;70042;52.494;5.502;2023-05-19T10:27:56;102836.72;;;19.63;59.04
80678;BME280;70042;52.494;5.502;2023-05-19T10:30:41;102833.16;;;19.65;59.05
80678;BME280;70042;52.494;5.502;2023-05-19T10:33:10;102835.81;;;19.68;59.20
80678;BME280;70042;52.494;5.502;2023-05-19T10:36:01;102840.25;;;19.69;58.94
80678;BME280;70042;52.494;5.502;2023-05-19T10:38:40;102828.72;;;19.74;58.88
80678;BME280;70042;52.494;5.502;2023-05-19T10:47:10;102812.81;;;19.77;59.00
80678;BME280;70042;52.494;5.502;2023-05-19T10:49:36;102814.56;;;19.78;59.27
80678;BME280;70042;52.494;5.502;2023-05-19T10:52:02;102807.50;;;19.74;58.91
80678;BME280;70042;52.494;5.502;2023-05-19T10:54:38;102811.06;;;19.69;58.66
80678;BME280;70042;52.494;5.502;2023-05-19T10:57:04;102806.63;;;19.70;58.98
80678;BME280;70042;52.494;5.502;2023-05-19T10:59:33;102813.72;;;19.73;58.93
80678;BME280;70042;52.494;5.502;2023-05-19T11:02:03;102802.19;;;19.74;58.23
80678;BME280;70042;52.494;5.502;2023-05-19T11:04:45;102806.63;;;19.75;58.38
80678;BME280;70042;52.494;5.502;2023-05-19T11:07:19;102800.44;;;19.76;58.33
80678;BME280;70042;52.494;5.502;2023-05-19T11:09:51;102798.66;;;19.78;58.58
80678;BME280;70042;52.494;5.502;2023-05-19T11:12:21;102803.09;;;19.79;58.64
80678;BME280;70042;52.494;5.502;2023-05-19T11:14:56;102811.91;;;19.81;58.41
80678;BME280;70042;52.494;5.502;2023-05-19T11:17:24;102805.72;;;19.83;58.36
80678;BME280;70042;52.494;5.502;2023-05-19T11:19:55;102805.72;;;19.85;57.87
80678;BME280;70042;52.494;5.502;2023-05-19T11:22:25;102803.94;;;19.87;58.07
80678;BME280;70042;52.494;5.502;2023-05-19T11:24:53;102803.94;;;19.87;57.54
80678;BME280;70042;52.494;5.502;2023-05-19T11:27:28;102798.63;;;19.90;57.53
80678;BME280;70042;52.494;5.502;2023-05-19T11:30:00;102799.50;;;19.90;57.73
80678;BME280;70042;52.494;5.502;2023-05-19T11:32:34;102796.88;;;19.92;57.40
80678;BME280;70042;52.494;5.502;2023-05-19T11:35:03;102799.50;;;19.93;57.43
80678;BME280;70042;52.494;5.502;2023-05-19T11:37:30;102800.38;;;19.94;57.70
80678;BME280;70042;52.494;5.502;2023-05-19T11:39:59;102791.53;;;19.95;57.50
80678;BME280;70042;52.494;5.502;2023-05-19T11:42:25;102792.41;;;19.97;57.21
80678;BME280;70042;52.494;5.502;2023-05-19T11:44:54;102787.97;;;19.99;57.96
80678;BME280;70042;52.494;5.502;2023-05-19T11:47:19;102795.03;;;20.00;57.27
80678;BME280;70042;52.494;5.502;2023-05-19T11:49:48;102787.94;;;20.02;57.43
80678;BME280;70042;52.494;5.502;2023-05-19T11:52:16;102791.50;;;20.04;57.53
80678;BME280;70042;52.494;5.502;2023-05-19T11:54:41;102779.09;;;20.06;57.72
80678;BME280;70042;52.494;5.502;2023-05-19T11:57:07;102783.53;;;20.07;57.37
80678;BME280;70042;52.494;5.502;2023-05-19T11:59:37;102789.69;;;20.09;57.91
80678;BME280;70042;52.494;5.502;2023-05-19T12:02:21;102786.16;;;20.10;57.61
80678;BME280;70042;52.494;5.502;2023-05-19T12:04:52;102784.41;;;20.09;57.74
80678;BME280;70042;52.494;5.502;2023-05-19T12:07:21;102783.50;;;20.08;57.53
80678;BME280;70042;52.494;5.502;2023-05-19T12:09:48;102778.19;;;20.08;57.58
80678;BME280;70042;52.494;5.502;2023-05-19T12:12:18;102793.22;;;20.08;57.34
80678;BME280;70042;52.494;5.502;2023-05-19T12:14:49;102786.16;;;20.10;57.66
80678;BME280;70042;52.494;5.502;2023-05-19T12:17:17;102787.03;;;20.09;57.48
80678;BME280;70042;52.494;5.502;2023-05-19T12:19:44;102787.03;;;20.12;57.41
80678;BME280;70042;52.494;5.502;2023-05-19T12:22:11;102789.69;;;20.12;57.25
80678;BME280;70042;52.494;5.502;2023-05-19T12:24:37;102787.91;;;20.11;57.48
80678;BME280;70042;52.494;5.502;2023-05-19T12:27:17;102778.22;;;20.10;57.22
80678;BME280;70042;52.494;5.502;2023-05-19T12:29:51;102780.84;;;20.08;56.95
80678;BME280;70042;52.494;5.502;2023-05-19T12:32:16;102777.31;;;20.09;57.20
80678;BME280;70042;52.494;5.502;2023-05-19T12:34:42;102763.16;;;20.09;56.73
80678;BME280;70042;52.494;5.502;2023-05-19T12:37:09;102762.28;;;20.05;57.10
80678;BME280;70042;52.494;5.502;2023-05-19T12:39:35;102767.63;;;20.04;56.85
80678;BME280;70042;52.494;5.502;2023-05-19T12:42:06;102764.06;;;20.05;56.71
80678;BME280;70042;52.494;5.502;2023-05-19T12:44:57;102760.56;;;20.04;56.80
80678;BME280;70042;52.494;5.502;2023-05-19T12:47:21;102756.09;;;20.05;56.43
80678;BME280;70042;52.494;5.502;2023-05-19T12:52:25;102758.78;;;20.03;56.60
80678;BME280;70042;52.494;5.502;2023-05-19T12:54:58;102752.56;;;20.06;56.67
80678;BME280;70042;52.494;5.502;2023-05-19T12:57:26;102750.81;;;20.03;56.84
80678;BME280;70042;52.494;5.502;2023-05-19T12:59:51;102746.38;;;20.05;56.63
80678;BME280;70042;52.494;5.502;2023-05-19T13:02:17;102745.47;;;20.05;56.43
80678;BME280;70042;52.494;5.502;2023-05-19T13:04:43;102740.19;;;20.06;57.01
80678;BME280;70042;52.494;5.502;2023-05-19T13:07:08;102737.50;;;20.08;56.34
80678;BME280;70042;52.494;5.502;2023-05-19T13:09:34;102738.41;;;20.10;56.47
80678;BME280;70042;52.494;5.502;2023-05-19T13:12:00;102735.72;;;20.11;56.59
80678;BME280;70042;52.494;5.502;2023-05-19T13:14:26;102744.56;;;20.13;56.62
80678;BME280;70042;52.494;5.502;2023-05-19T13:16:51;102729.50;;;20.14;56.69
80678;BME280;70042;52.494;5.502;2023-05-19T13:19:17;102740.13;;;20.17;56.37
80678;BME280;70042;52.494;5.502;2023-05-19T13:21:43;102731.25;;;20.18;56.52